sensor_id;sensor_type;location;lat;lon;timestamp;temperature;humidity
22769;DHT22;13001;51.968;5.918;2024-01-11T04:51:16;6.80;63.30
22769;DHT22;13001;51.968;5.918;2024-01-11T04:53:45;-4.40;93.70
22769;DHT22;13001;51.968;5.918;2024-01-11T04:56:15;-4.70;93.60
22769;DHT22;13001;51.968;5.918;2024-01-11T04:58:44;-4.70;93.70
22769;DHT22;13001;51.968;5.918;2024-01-11T05:01:14;-4.70;93.70
22769;DHT22;13001;51.968;5.918;2024-01-11T05:03:42;-4.80;93.80
22769;DHT22;13001;51.968;5.918;2024-01-11T05:06:17;-4.80;93.80
22769;DHT22;13001;51.968;5.918;2024-01-11T05:08:51;-4.70;93.90
22769;DHT22;13001;51.968;5.918;2024-01-11T05:11:21;-4.80;93.90
22769;DHT22;13001;51.968;5.918;2024-01-11T05:13:51;-4.80;93.90
22769;DHT22;13001;51.968;5.918;2024-01-11T05:16:26;-4.80;93.90
22769;DHT22;13001;51.968;5.918;2024-01-11T05:18:55;-4.80;94.00
22769;DHT22;13001;51.968;5.918;2024-01-11T05:21:23;-4.90;94.00
22769;DHT22;13001;51.968;5.918;2024-01-11T05:23:52;-4.90;94.00
22769;DHT22;13001;51.968;5.918;2024-01-11T05:26:20;-4.90;94.10
22769;DHT22;13001;51.968;5.918;2024-01-11T05:28:48;-4.90;94.10
22769;DHT22;13001;51.968;5.918;2024-01-11T05:31:16;-4.90;94.10
22769;DHT22;13001;51.968;5.918;2024-01-11T05:33:43;-4.90;94.20
22769;DHT22;13001;51.968;5.918;2024-01-11T05:36:12;-4.90;94.20
22769;DHT22;13001;51.968;5.918;2024-01-11T05:38:40;-4.90;94.20
22769;DHT22;13001;51.968;5.918;2024-01-11T05:41:08;-4.90;94.20
22769;DHT22;13001;51.968;5.918;2024-01-11T05:43:37;-4.90;94.30
22769;DHT22;13001;51.968;5.918;2024-01-11T05:46:05;-4.90;94.30
22769;DHT22;13001;51.968;5.918;2024-01-11T05:48:33;-4.90;94.40
22769;DHT22;13001;51.968;5.918;2024-01-11T05:51:03;-4.90;94.40
22769;DHT22;13001;51.968;5.918;2024-01-11T05:53:31;-4.90;94.40
22769;DHT22;13001;51.968;5.918;2024-01-11T05:56:01;-4.90;94.40
22769;DHT22;13001;51.968;5.918;2024-01-11T05:58:29;-4.90;94.50
22769;DHT22;13001;51.968;5.918;2024-01-11T06:00:57;-4.80;94.50
22769;DHT22;13001;51.968;5.918;2024-01-11T06:03:24;-4.80;94.50
22769;DHT22;13001;51.968;5.918;2024-01-11T06:05:52;-4.80;94.50
22769;DHT22;13001;51.968;5.918;2024-01-11T06:08:19;-4.80;94.50
22769;DHT22;13001;51.968;5.918;2024-01-11T06:10:47;-4.80;94.50
22769;DHT22;13001;51.968;5.918;2024-01-11T06:13:14;-4.80;94.50
22769;DHT22;13001;51.968;5.918;2024-01-11T06:15:42;-4.80;94.60
22769;DHT22;13001;51.968;5.918;2024-01-11T06:18:10;-4.80;94.60
22769;DHT22;13001;51.968;5.918;2024-01-11T06:20:37;-4.80;94.60
22769;DHT22;13001;51.968;5.918;2024-01-11T06:23:05;-4.80;94.70
22769;DHT22;13001;51.968;5.918;2024-01-11T06:25:34;-4.80;94.70
22769;DHT22;13001;51.968;5.918;2024-01-11T06:28:03;-4.80;94.70
22769;DHT22;13001;51.968;5.918;2024-01-11T06:30:33;-4.80;94.70
22769;DHT22;13001;51.968;5.918;2024-01-11T06:33:00;-4.80;94.70
22769;DHT22;13001;51.968;5.918;2024-01-11T06:35:28;-4.80;94.70
22769;DHT22;13001;51.968;5.918;2024-01-11T06:37:55;-4.80;94.70
22769;DHT22;13001;51.968;5.918;2024-01-11T06:40:23;-4.90;94.80
22769;DHT22;13001;51.968;5.918;2024-01-11T06:42:50;-4.90;94.80
22769;DHT22;13001;51.968;5.918;2024-01-11T06:45:18;-4.90;94.90
22769;DHT22;13001;51.968;5.918;2024-01-11T06:47:48;-4.90;94.90
22769;DHT22;13001;51.968;5.918;2024-01-11T06:50:16;-4.80;95.00
22769;DHT22;13001;51.968;5.918;2024-01-11T06:52:43;-4.90;95.00
22769;DHT22;13001;51.968;5.918;2024-01-11T06:55:11;-4.90;95.00
22769;DHT22;13001;51.968;5.918;2024-01-11T06:57:39;-4.90;95.10
22769;DHT22;13001;51.968;5.918;2024-01-11T07:00:07;-4.80;95.10
22769;DHT22;13001;51.968;5.918;2024-01-11T07:02:34;-4.80;95.10
22769;DHT22;13001;51.968;5.918;2024-01-11T07:05:02;-4.80;95.10
22769;DHT22;13001;51.968;5.918;2024-01-11T07:07:29;-4.80;95.10
22769;DHT22;13001;51.968;5.918;2024-01-11T07:09:57;-4.80;95.10
22769;DHT22;13001;51.968;5.918;2024-01-11T07:12:25;-4.80;95.10
22769;DHT22;13001;51.968;5.918;2024-01-11T07:14:52;-4.80;95.10
22769;DHT22;13001;51.968;5.918;2024-01-11T07:17:20;-4.70;95.20
22769;DHT22;13001;51.968;5.918;2024-01-11T07:19:49;-4.70;95.20
22769;DHT22;13001;51.968;5.918;2024-01-11T07:22:16;-4.70;95.20
22769;DHT22;13001;51.968;5.918;2024-01-11T07:24:44;-4.70;95.20
22769;DHT22;13001;51.968;5.918;2024-01-11T07:27:11;-4.70;95.20
22769;DHT22;13001;51.968;5.918;2024-01-11T07:29:43;-4.70;95.30
22769;DHT22;13001;51.968;5.918;2024-01-11T07:32:12;-4.70;95.30
22769;DHT22;13001;51.968;5.918;2024-01-11T07:34:42;-4.70;95.40
22769;DHT22;13001;51.968;5.918;2024-01-11T07:37:11;-4.70;95.40
22769;DHT22;13001;51.968;5.918;2024-01-11T07:39:39;-4.70;95.40
22769;DHT22;13001;51.968;5.918;2024-01-11T07:42:07;-4.70;95.40
22769;DHT22;13001;51.968;5.918;2024-01-11T07:44:34;-4.70;95.40
22769;DHT22;13001;51.968;5.918;2024-01-11T07:47:02;-4.60;95.40
22769;DHT22;13001;51.968;5.918;2024-01-11T07:49:30;-4.50;95.40
22769;DHT22;13001;51.968;5.918;2024-01-11T07:51:57;-4.50;95.40
22769;DHT22;13001;51.968;5.918;2024-01-11T07:54:25;-4.40;95.50
22769;DHT22;13001;51.968;5.918;2024-01-11T07:56:52;-4.30;95.50
22769;DHT22;13001;51.968;5.918;2024-01-11T07:59:20;-3.80;95.90
22769;DHT22;13001;51.968;5.918;2024-01-11T08:01:47;-2.80;96.20
22769;DHT22;13001;51.968;5.918;2024-01-11T08:04:15;-1.70;95.50
22769;DHT22;13001;51.968;5.918;2024-01-11T08:06:42;-0.70;94.40
22769;DHT22;13001;51.968;5.918;2024-01-11T08:09:10;-0.10;93.30
22769;DHT22;13001;51.968;5.918;2024-01-11T08:11:40;0.10;92.30
22769;DHT22;13001;51.968;5.918;2024-01-11T08:14:09;0.20;92.00
22769;DHT22;13001;51.968;5.918;2024-01-11T08:16:36;0.30;91.80
22769;DHT22;13001;51.968;5.918;2024-01-11T08:19:04;0.40;91.50
22769;DHT22;13001;51.968;5.918;2024-01-11T08:21:32;0.30;91.30
22769;DHT22;13001;51.968;5.918;2024-01-11T08:23:59;0.30;91.30
22769;DHT22;13001;51.968;5.918;2024-01-11T08:26:29;0.70;91.80
22769;DHT22;13001;51.968;5.918;2024-01-11T08:28:58;1.80;90.90
22769;DHT22;13001;51.968;5.918;2024-01-11T08:31:25;3.30;90.00
22769;DHT22;13001;51.968;5.918;2024-01-11T08:33:53;4.70;87.20
22769;DHT22;13001;51.968;5.918;2024-01-11T08:36:20;5.80;84.70
22769;DHT22;13001;51.968;5.918;2024-01-11T08:38:46;6.60;80.90
22769;DHT22;13001;51.968;5.918;2024-01-11T08:41:15;7.20;79.20
22769;DHT22;13001;51.968;5.918;2024-01-11T08:43:44;7.80;77.90
22769;DHT22;13001;51.968;5.918;2024-01-11T08:46:11;8.40;75.90
22769;DHT22;13001;51.968;5.918;2024-01-11T08:48:38;8.50;74.10
22769;DHT22;13001;51.968;5.918;2024-01-11T08:51:05;8.00;73.40
22769;DHT22;13001;51.968;5.918;2024-01-11T08:53:32;7.30;73.90
22769;DHT22;13001;51.968;5.918;2024-01-11T08:55:59;6.40;74.60
22769;DHT22;13001;51.968;5.918;2024-01-11T08:58:25;5.30;76.10
22769;DHT22;13001;51.968;5.918;2024-01-11T09:00:54;4.40;77.90
22769;DHT22;13001;51.968;5.918;2024-01-11T09:03:22;3.60;79.90
22769;DHT22;13001;51.968;5.918;2024-01-11T09:05:52;2.90;81.50
22769;DHT22;13001;51.968;5.918;2024-01-11T09:08:21;2.50;83.00
22769;DHT22;13001;51.968;5.918;2024-01-11T09:10:50;2.30;83.70
22769;DHT22;13001;51.968;5.918;2024-01-11T09:13:19;2.00;84.20
22769;DHT22;13001;51.968;5.918;2024-01-11T09:15:47;1.90;84.80
22769;DHT22;13001;51.968;5.918;2024-01-11T09:18:15;2.10;84.30
22769;DHT22;13001;51.968;5.918;2024-01-11T09:20:46;2.60;83.00
22769;DHT22;13001;51.968;5.918;2024-01-11T09:23:16;3.80;81.00
22769;DHT22;13001;51.968;5.918;2024-01-11T09:25:44;5.30;78.90
22769;DHT22;13001;51.968;5.918;2024-01-11T09:28:13;6.40;76.10
22769;DHT22;13001;51.968;5.918;2024-01-11T09:30:39;7.60;73.70
22769;DHT22;13001;51.968;5.918;2024-01-11T09:33:06;8.60;71.50
22769;DHT22;13001;51.968;5.918;2024-01-11T09:35:34;9.30;69.10
22769;DHT22;13001;51.968;5.918;2024-01-11T09:38:01;9.60;67.50
22769;DHT22;13001;51.968;5.918;2024-01-11T09:40:28;10.00;67.20
22769;DHT22;13001;51.968;5.918;2024-01-11T09:42:54;10.30;66.30
22769;DHT22;13001;51.968;5.918;2024-01-11T09:45:21;10.70;65.70
22769;DHT22;13001;51.968;5.918;2024-01-11T09:47:48;11.00;65.30
22769;DHT22;13001;51.968;5.918;2024-01-11T09:57:37;11.40;64.50
22769;DHT22;13001;51.968;5.918;2024-01-11T10:00:06;11.30;60.90
22769;DHT22;13001;51.968;5.918;2024-01-11T10:02:33;10.40;61.40
22769;DHT22;13001;51.968;5.918;2024-01-11T10:05:04;9.50;63.30
22769;DHT22;13001;51.968;5.918;2024-01-11T10:07:31;8.90;64.60
22769;DHT22;13001;51.968;5.918;2024-01-11T10:09:59;8.10;65.60
22769;DHT22;13001;51.968;5.918;2024-01-11T10:12:28;6.90;66.90
22769;DHT22;13001;51.968;5.918;2024-01-11T10:14:59;5.60;69.20
22769;DHT22;13001;51.968;5.918;2024-01-11T10:17:26;4.60;71.30
22769;DHT22;13001;51.968;5.918;2024-01-11T10:19:54;3.80;73.00
22769;DHT22;13001;51.968;5.918;2024-01-11T10:22:21;3.40;74.60
22769;DHT22;13001;51.968;5.918;2024-01-11T10:24:49;3.10;75.70
22769;DHT22;13001;51.968;5.918;2024-01-11T10:27:16;2.80;76.40
22769;DHT22;13001;51.968;5.918;2024-01-11T10:29:44;2.60;77.10
22769;DHT22;13001;51.968;5.918;2024-01-11T10:32:14;2.30;77.70
22769;DHT22;13001;51.968;5.918;2024-01-11T10:34:41;2.00;78.30
22769;DHT22;13001;51.968;5.918;2024-01-11T10:37:09;1.80;79.40
22769;DHT22;13001;51.968;5.918;2024-01-11T10:39:36;1.60;80.20
22769;DHT22;13001;51.968;5.918;2024-01-11T10:42:06;1.40;81.00
22769;DHT22;13001;51.968;5.918;2024-01-11T10:44:35;1.20;83.00
22769;DHT22;13001;51.968;5.918;2024-01-11T10:47:03;1.20;83.90
22769;DHT22;13001;51.968;5.918;2024-01-11T10:49:34;1.10;84.50
22769;DHT22;13001;51.968;5.918;2024-01-11T10:52:03;1.00;85.00
22769;DHT22;13001;51.968;5.918;2024-01-11T10:54:34;1.10;85.50
22769;DHT22;13001;51.968;5.918;2024-01-11T10:57:01;1.00;85.80
22769;DHT22;13001;51.968;5.918;2024-01-11T10:59:32;1.10;86.30
22769;DHT22;13001;51.968;5.918;2024-01-11T11:02:04;1.10;86.80
22769;DHT22;13001;51.968;5.918;2024-01-11T11:04:33;1.10;87.40
22769;DHT22;13001;51.968;5.918;2024-01-11T11:07:01;1.30;88.00
22769;DHT22;13001;51.968;5.918;2024-01-11T11:09:31;1.50;88.50
22769;DHT22;13001;51.968;5.918;2024-01-11T11:12:01;1.60;87.90
22769;DHT22;13001;51.968;5.918;2024-01-11T11:14:31;1.60;88.30
22769;DHT22;13001;51.968;5.918;2024-01-11T11:16:59;1.40;88.80
22769;DHT22;13001;51.968;5.918;2024-01-11T11:19:26;1.20;89.70
22769;DHT22;13001;51.968;5.918;2024-01-11T11:21:54;1.00;90.30
22769;DHT22;13001;51.968;5.918;2024-01-11T11:24:23;0.90;90.80
22769;DHT22;13001;51.968;5.918;2024-01-11T11:26:51;0.90;91.10
22769;DHT22;13001;51.968;5.918;2024-01-11T11:29:20;0.80;91.30
22769;DHT22;13001;51.968;5.918;2024-01-11T11:31:48;0.80;91.60
22769;DHT22;13001;51.968;5.918;2024-01-11T11:34:19;0.90;91.90
22769;DHT22;13001;51.968;5.918;2024-01-11T11:36:47;1.00;92.00
22769;DHT22;13001;51.968;5.918;2024-01-11T11:39:17;1.00;92.40
22769;DHT22;13001;51.968;5.918;2024-01-11T11:41:47;1.10;92.10
22769;DHT22;13001;51.968;5.918;2024-01-11T11:44:16;1.10;92.20
22769;DHT22;13001;51.968;5.918;2024-01-11T11:46:45;1.20;92.40
22769;DHT22;13001;51.968;5.918;2024-01-11T11:49:14;1.30;92.50
22769;DHT22;13001;51.968;5.918;2024-01-11T11:51:44;1.40;92.80
22769;DHT22;13001;51.968;5.918;2024-01-11T11:54:11;1.40;92.60
22769;DHT22;13001;51.968;5.918;2024-01-11T11:56:41;1.40;93.00
22769;DHT22;13001;51.968;5.918;2024-01-11T11:59:09;1.40;92.80
22769;DHT22;13001;51.968;5.918;2024-01-11T12:01:37;1.40;92.90
22769;DHT22;13001;51.968;5.918;2024-01-11T12:04:07;1.50;93.10
22769;DHT22;13001;51.968;5.918;2024-01-11T12:06:35;1.50;93.20
22769;DHT22;13001;51.968;5.918;2024-01-11T12:09:03;1.50;93.30
22769;DHT22;13001;51.968;5.918;2024-01-11T12:11:30;1.50;93.40
22769;DHT22;13001;51.968;5.918;2024-01-11T12:13:59;1.60;93.60
22769;DHT22;13001;51.968;5.918;2024-01-11T12:16:27;1.70;93.70
22769;DHT22;13001;51.968;5.918;2024-01-11T12:18:55;1.80;93.70
22769;DHT22;13001;51.968;5.918;2024-01-11T12:21:22;1.80;93.80
22769;DHT22;13001;51.968;5.918;2024-01-11T12:23:50;1.90;93.80
22769;DHT22;13001;51.968;5.918;2024-01-11T12:26:17;1.90;93.90
22769;DHT22;13001;51.968;5.918;2024-01-11T12:28:46;1.90;93.90
22769;DHT22;13001;51.968;5.918;2024-01-11T12:31:16;2.00;94.00
22769;DHT22;13001;51.968;5.918;2024-01-11T12:33:43;2.00;94.10
22769;DHT22;13001;51.968;5.918;2024-01-11T12:36:13;2.00;94.10
22769;DHT22;13001;51.968;5.918;2024-01-11T12:38:46;2.00;94.20
22769;DHT22;13001;51.968;5.918;2024-01-11T12:41:15;2.10;94.30
22769;DHT22;13001;51.968;5.918;2024-01-11T12:43:43;2.10;94.40
22769;DHT22;13001;51.968;5.918;2024-01-11T12:46:11;2.10;94.40
22769;DHT22;13001;51.968;5.918;2024-01-11T12:48:39;2.20;94.40
22769;DHT22;13001;51.968;5.918;2024-01-11T12:51:06;2.20;94.50
22769;DHT22;13001;51.968;5.918;2024-01-11T12:53:37;2.20;94.50
22769;DHT22;13001;51.968;5.918;2024-01-11T12:56:06;2.20;94.50
22769;DHT22;13001;51.968;5.918;2024-01-11T12:58:40;2.20;94.60
22769;DHT22;13001;51.968;5.918;2024-01-11T13:01:09;2.20;94.80
22769;DHT22;13001;51.968;5.918;2024-01-11T13:03:39;2.30;94.80
22769;DHT22;13001;51.968;5.918;2024-01-11T13:06:07;2.40;94.80
22769;DHT22;13001;51.968;5.918;2024-01-11T13:08:36;2.40;94.70
22769;DHT22;13001;51.968;5.918;2024-01-11T13:11:08;2.40;94.80
22769;DHT22;13001;51.968;5.918;2024-01-11T13:13:36;2.40;94.90
22769;DHT22;13001;51.968;5.918;2024-01-11T13:16:03;2.50;94.90
22769;DHT22;13001;51.968;5.918;2024-01-11T13:18:36;2.60;95.00
22769;DHT22;13001;51.968;5.918;2024-01-11T13:21:03;2.60;94.90
22769;DHT22;13001;51.968;5.918;2024-01-11T13:23:32;2.70;95.00
22769;DHT22;13001;51.968;5.918;2024-01-11T13:26:00;2.80;94.90
22769;DHT22;13001;51.968;5.918;2024-01-11T13:28:28;2.90;94.90
22769;DHT22;13001;51.968;5.918;2024-01-11T13:30:56;2.90;94.90
22769;DHT22;13001;51.968;5.918;2024-01-11T13:33:23;3.00;94.90
22769;DHT22;13001;51.968;5.918;2024-01-11T13:35:51;3.00;94.90
22769;DHT22;13001;51.968;5.918;2024-01-11T13:38:19;3.00;94.90
22769;DHT22;13001;51.968;5.918;2024-01-11T13:40:46;3.10;94.90
22769;DHT22;13001;51.968;5.918;2024-01-11T13:43:14;3.10;94.80
22769;DHT22;13001;51.968;5.918;2024-01-11T13:45:41;3.10;94.90
22769;DHT22;13001;51.968;5.918;2024-01-11T13:48:11;3.20;94.90
22769;DHT22;13001;51.968;5.918;2024-01-11T13:50:38;3.20;94.90
22769;DHT22;13001;51.968;5.918;2024-01-11T13:53:06;3.20;94.90
22769;DHT22;13001;51.968;5.918;2024-01-11T13:55:33;3.30;95.00
22769;DHT22;13001;51.968;5.918;2024-01-11T13:58:03;3.30;95.00
22769;DHT22;13001;51.968;5.918;2024-01-11T14:00:31;3.30;94.90
22769;DHT22;13001;51.968;5.918;2024-01-11T14:02:58;3.30;95.00
22769;DHT22;13001;51.968;5.918;2024-01-11T14:05:26;3.20;95.00
22769;DHT22;13001;51.968;5.918;2024-01-11T14:07:53;3.20;95.10
22769;DHT22;13001;51.968;5.918;2024-01-11T14:10:22;3.20;95.10
22769;DHT22;13001;51.968;5.918;2024-01-11T14:12:50;3.20;95.10
22769;DHT22;13001;51.968;5.918;2024-01-11T14:15:18;3.20;95.10
22769;DHT22;13001;51.968;5.918;2024-01-11T14:17:45;3.10;95.20
22769;DHT22;13001;51.968;5.918;2024-01-11T14:20:14;3.10;95.20
22769;DHT22;13001;51.968;5.918;2024-01-11T14:22:44;3.00;95.20
22769;DHT22;13001;51.968;5.918;2024-01-11T14:25:13;2.90;95.30
22769;DHT22;13001;51.968;5.918;2024-01-11T14:27:40;2.80;95.40
22769;DHT22;13001;51.968;5.918;2024-01-11T14:30:08;2.80;95.50
22769;DHT22;13001;51.968;5.918;2024-01-11T14:32:36;2.70;95.60
22769;DHT22;13001;51.968;5.918;2024-01-11T14:35:09;2.70;95.70
22769;DHT22;13001;51.968;5.918;2024-01-11T14:37:34;2.70;95.70
22769;DHT22;13001;51.968;5.918;2024-01-11T14:40:03;2.60;95.80
22769;DHT22;13001;51.968;5.918;2024-01-11T14:42:31;2.60;95.90
22769;DHT22;13001;51.968;5.918;2024-01-11T14:45:00;2.60;95.90
22769;DHT22;13001;51.968;5.918;2024-01-11T14:47:30;2.60;96.00
22769;DHT22;13001;51.968;5.918;2024-01-11T14:50:00;2.50;96.00
22769;DHT22;13001;51.968;5.918;2024-01-11T14:52:30;2.50;96.10
22769;DHT22;13001;51.968;5.918;2024-01-11T14:55:00;2.50;96.10
22769;DHT22;13001;51.968;5.918;2024-01-11T14:57:29;2.50;96.20
22769;DHT22;13001;51.968;5.918;2024-01-11T14:59:57;2.50;96.20
22769;DHT22;13001;51.968;5.918;2024-01-11T15:02:26;2.50;96.30
22769;DHT22;13001;51.968;5.918;2024-01-11T15:04:54;2.50;96.30
22769;DHT22;13001;51.968;5.918;2024-01-11T15:07:21;2.50;96.40
22769;DHT22;13001;51.968;5.918;2024-01-11T15:09:49;2.50;96.50
22769;DHT22;13001;51.968;5.918;2024-01-11T15:12:16;2.40;96.40
22769;DHT22;13001;51.968;5.918;2024-01-11T15:14:46;2.40;96.50
22769;DHT22;13001;51.968;5.918;2024-01-11T15:17:15;2.40;96.60
22769;DHT22;13001;51.968;5.918;2024-01-11T15:19:43;2.40;96.60
22769;DHT22;13001;51.968;5.918;2024-01-11T15:22:11;2.40;96.70
22769;DHT22;13001;51.968;5.918;2024-01-11T15:24:41;2.30;96.70
22769;DHT22;13001;51.968;5.918;2024-01-11T15:27:10;2.30;96.80
22769;DHT22;13001;51.968;5.918;2024-01-11T15:29:38;2.30;96.90
22769;DHT22;13001;51.968;5.918;2024-01-11T15:32:07;2.30;97.00
22769;DHT22;13001;51.968;5.918;2024-01-11T15:34:36;2.30;97.00
22769;DHT22;13001;51.968;5.918;2024-01-11T15:37:04;2.30;97.10
22769;DHT22;13001;51.968;5.918;2024-01-11T15:39:32;2.30;97.20
22769;DHT22;13001;51.968;5.918;2024-01-11T15:42:00;2.30;97.20
22769;DHT22;13001;51.968;5.918;2024-01-11T15:44:29;2.20;97.30
22769;DHT22;13001;51.968;5.918;2024-01-11T15:46:59;2.20;97.30
22769;DHT22;13001;51.968;5.918;2024-01-11T15:49:28;2.20;97.30
22769;DHT22;13001;51.968;5.918;2024-01-11T15:51:55;2.20;97.40
22769;DHT22;13001;51.968;5.918;2024-01-11T15:54:23;2.10;97.50
22769;DHT22;13001;51.968;5.918;2024-01-11T15:56:52;2.10;97.60
22769;DHT22;13001;51.968;5.918;2024-01-11T15:59:19;2.10;97.70
22769;DHT22;13001;51.968;5.918;2024-01-11T16:01:47;2.10;97.70
22769;DHT22;13001;51.968;5.918;2024-01-11T16:04:14;2.10;97.80
22769;DHT22;13001;51.968;5.918;2024-01-11T16:06:42;2.10;97.80
22769;DHT22;13001;51.968;5.918;2024-01-11T16:09:09;2.00;97.90
22769;DHT22;13001;51.968;5.918;2024-01-11T16:11:37;2.00;98.30
22769;DHT22;13001;51.968;5.918;2024-01-11T16:14:06;2.10;98.10
22769;DHT22;13001;51.968;5.918;2024-01-11T16:16:36;2.00;98.10
22769;DHT22;13001;51.968;5.918;2024-01-11T16:19:03;2.00;98.20
22769;DHT22;13001;51.968;5.918;2024-01-11T16:21:31;2.00;98.30
22769;DHT22;13001;51.968;5.918;2024-01-11T16:23:59;2.00;98.30
22769;DHT22;13001;51.968;5.918;2024-01-11T16:26:27;2.00;98.30
22769;DHT22;13001;51.968;5.918;2024-01-11T16:28:57;2.00;98.40
22769;DHT22;13001;51.968;5.918;2024-01-11T16:31:24;2.00;98.50
22769;DHT22;13001;51.968;5.918;2024-01-11T16:33:52;2.00;98.60
22769;DHT22;13001;51.968;5.918;2024-01-11T16:36:19;2.00;98.70
22769;DHT22;13001;51.968;5.918;2024-01-11T16:38:52;2.00;98.70
22769;DHT22;13001;51.968;5.918;2024-01-11T16:41:19;2.00;98.80
22769;DHT22;13001;51.968;5.918;2024-01-11T16:43:47;2.00;98.80
22769;DHT22;13001;51.968;5.918;2024-01-11T16:46:23;2.00;98.90
22769;DHT22;13001;51.968;5.918;2024-01-11T16:48:47;2.00;98.90
22769;DHT22;13001;51.968;5.918;2024-01-11T16:51:15;2.00;99.00
22769;DHT22;13001;51.968;5.918;2024-01-11T16:53:42;2.00;99.00
22769;DHT22;13001;51.968;5.918;2024-01-11T16:56:10;1.90;99.30
22769;DHT22;13001;51.968;5.918;2024-01-11T16:58:38;2.00;99.10
22769;DHT22;13001;51.968;5.918;2024-01-11T17:01:05;2.00;99.20
22769;DHT22;13001;51.968;5.918;2024-01-11T17:03:34;2.00;99.20
22769;DHT22;13001;51.968;5.918;2024-01-11T17:06:02;2.00;99.30
22769;DHT22;13001;51.968;5.918;2024-01-11T17:08:30;1.90;99.30
22769;DHT22;13001;51.968;5.918;2024-01-11T17:10:59;1.90;99.40
22769;DHT22;13001;51.968;5.918;2024-01-11T17:13:27;2.00;99.50
22769;DHT22;13001;51.968;5.918;2024-01-11T17:15:54;1.90;99.50
22769;DHT22;13001;51.968;5.918;2024-01-11T17:18:22;2.00;99.60
22769;DHT22;13001;51.968;5.918;2024-01-11T17:20:49;1.90;99.60
22769;DHT22;13001;51.968;5.918;2024-01-11T17:23:18;1.90;99.70
22769;DHT22;13001;51.968;5.918;2024-01-11T17:25:46;2.00;99.70
22769;DHT22;13001;51.968;5.918;2024-01-11T17:28:13;2.00;99.80
22769;DHT22;13001;51.968;5.918;2024-01-11T17:30:41;1.90;99.80
22769;DHT22;13001;51.968;5.918;2024-01-11T17:33:09;1.90;99.90
22769;DHT22;13001;51.968;5.918;2024-01-11T17:35:37;1.90;99.90
22769;DHT22;13001;51.968;5.918;2024-01-11T17:38:04;2.00;99.90
22769;DHT22;13001;51.968;5.918;2024-01-11T17:40:33;1.90;99.90
22769;DHT22;13001;51.968;5.918;2024-01-11T17:43:03;1.90;99.90
22769;DHT22;13001;51.968;5.918;2024-01-11T17:45:32;2.00;99.90
22769;DHT22;13001;51.968;5.918;2024-01-11T17:48:02;1.90;99.90
22769;DHT22;13001;51.968;5.918;2024-01-11T17:50:29;1.90;99.90
22769;DHT22;13001;51.968;5.918;2024-01-11T17:52:59;1.90;99.90
22769;DHT22;13001;51.968;5.918;2024-01-11T17:55:30;2.00;99.90
22769;DHT22;13001;51.968;5.918;2024-01-11T17:57:59;1.90;99.90
22769;DHT22;13001;51.968;5.918;2024-01-11T18:00:26;2.00;99.90
22769;DHT22;13001;51.968;5.918;2024-01-11T18:02:56;1.90;99.90
22769;DHT22;13001;51.968;5.918;2024-01-11T18:05:24;1.90;99.90
22769;DHT22;13001;51.968;5.918;2024-01-11T18:07:53;2.00;99.90
22769;DHT22;13001;51.968;5.918;2024-01-11T18:10:24;1.90;99.90
22769;DHT22;13001;51.968;5.918;2024-01-11T18:12:51;1.90;99.90
22769;DHT22;13001;51.968;5.918;2024-01-11T18:15:19;1.90;99.90
22769;DHT22;13001;51.968;5.918;2024-01-11T18:17:46;1.90;99.90
22769;DHT22;13001;51.968;5.918;2024-01-11T18:20:14;1.90;99.90
22769;DHT22;13001;51.968;5.918;2024-01-11T18:22:42;1.90;99.90
22769;DHT22;13001;51.968;5.918;2024-01-11T18:25:09;1.90;99.90
22769;DHT22;13001;51.968;5.918;2024-01-11T18:27:37;1.90;99.90
22769;DHT22;13001;51.968;5.918;2024-01-11T18:30:05;1.90;99.90
22769;DHT22;13001;51.968;5.918;2024-01-11T18:32:33;1.90;99.90
22769;DHT22;13001;51.968;5.918;2024-01-11T18:35:02;1.90;99.90
22769;DHT22;13001;51.968;5.918;2024-01-11T18:37:30;1.90;99.90
22769;DHT22;13001;51.968;5.918;2024-01-11T18:39:58;1.90;99.90
22769;DHT22;13001;51.968;5.918;2024-01-11T18:42:26;1.90;99.90
22769;DHT22;13001;51.968;5.918;2024-01-11T18:44:54;1.90;99.90
22769;DHT22;13001;51.968;5.918;2024-01-11T18:47:23;1.90;99.90
22769;DHT22;13001;51.968;5.918;2024-01-11T18:49:50;1.90;99.90
22769;DHT22;13001;51.968;5.918;2024-01-11T18:52:18;1.90;99.90
22769;DHT22;13001;51.968;5.918;2024-01-11T18:54:46;1.90;99.90
22769;DHT22;13001;51.968;5.918;2024-01-11T18:57:14;1.90;99.90
22769;DHT22;13001;51.968;5.918;2024-01-11T18:59:42;1.90;99.90
22769;DHT22;13001;51.968;5.918;2024-01-11T19:02:10;1.90;99.90
22769;DHT22;13001;51.968;5.918;2024-01-11T19:04:37;1.90;99.90
22769;DHT22;13001;51.968;5.918;2024-01-11T19:07:05;2.00;99.90
22769;DHT22;13001;51.968;5.918;2024-01-11T19:09:32;2.00;99.90
22769;DHT22;13001;51.968;5.918;2024-01-11T19:12:00;2.00;99.90
22769;DHT22;13001;51.968;5.918;2024-01-11T19:14:28;1.90;99.90
22769;DHT22;13001;51.968;5.918;2024-01-11T19:16:55;2.00;99.90
22769;DHT22;13001;51.968;5.918;2024-01-11T19:19:23;2.00;99.90
22769;DHT22;13001;51.968;5.918;2024-01-11T19:21:50;2.00;99.90
22769;DHT22;13001;51.968;5.918;2024-01-11T19:24:18;2.00;99.90
22769;DHT22;13001;51.968;5.918;2024-01-11T19:26:45;2.00;99.90
22769;DHT22;13001;51.968;5.918;2024-01-11T19:29:23;2.00;99.90
22769;DHT22;13001;51.968;5.918;2024-01-11T19:31:51;2.00;99.90
22769;DHT22;13001;51.968;5.918;2024-01-11T19:34:21;2.00;99.90
22769;DHT22;13001;51.968;5.918;2024-01-11T19:36:48;2.00;99.90
22769;DHT22;13001;51.968;5.918;2024-01-11T19:39:15;2.00;99.90
22769;DHT22;13001;51.968;5.918;2024-01-11T19:41:44;2.00;99.90
22769;DHT22;13001;51.968;5.918;2024-01-11T19:44:12;2.00;99.90
22769;DHT22;13001;51.968;5.918;2024-01-11T19:46:40;2.10;99.90
22769;DHT22;13001;51.968;5.918;2024-01-11T19:49:09;2.10;99.90
22769;DHT22;13001;51.968;5.918;2024-01-11T19:51:37;2.10;99.90
22769;DHT22;13001;51.968;5.918;2024-01-11T19:54:05;2.10;99.90
22769;DHT22;13001;51.968;5.918;2024-01-11T19:56:32;2.10;99.90
22769;DHT22;13001;51.968;5.918;2024-01-11T19:59:00;2.10;99.90
22769;DHT22;13001;51.968;5.918;2024-01-11T20:01:27;2.20;99.90
22769;DHT22;13001;51.968;5.918;2024-01-11T20:03:55;2.10;99.90
22769;DHT22;13001;51.968;5.918;2024-01-11T20:06:24;2.10;99.90
22769;DHT22;13001;51.968;5.918;2024-01-11T20:08:51;2.10;99.90
22769;DHT22;13001;51.968;5.918;2024-01-11T20:11:19;2.20;99.90
22769;DHT22;13001;51.968;5.918;2024-01-11T20:13:46;2.20;99.90
22769;DHT22;13001;51.968;5.918;2024-01-11T20:16:14;2.20;99.90
22769;DHT22;13001;51.968;5.918;2024-01-11T20:18:41;2.20;99.90
22769;DHT22;13001;51.968;5.918;2024-01-11T20:21:10;2.20;99.90
22769;DHT22;13001;51.968;5.918;2024-01-11T20:23:40;2.20;99.90
22769;DHT22;13001;51.968;5.918;2024-01-11T20:26:13;2.20;99.90
22769;DHT22;13001;51.968;5.918;2024-01-11T20:28:41;2.20;99.90
22769;DHT22;13001;51.968;5.918;2024-01-11T20:31:08;2.30;99.90
22769;DHT22;13001;51.968;5.918;2024-01-11T20:33:36;2.30;99.90
22769;DHT22;13001;51.968;5.918;2024-01-11T20:36:04;2.30;99.90
22769;DHT22;13001;51.968;5.918;2024-01-11T20:38:33;2.30;99.90
22769;DHT22;13001;51.968;5.918;2024-01-11T20:41:01;2.30;99.90
22769;DHT22;13001;51.968;5.918;2024-01-11T20:43:29;2.30;99.90
22769;DHT22;13001;51.968;5.918;2024-01-11T20:45:56;2.30;99.90